createdAt,value
2018-01-06T00:01:54.247Z,99879.17
2018-01-06T00:04:20.010Z,99876.11
2018-01-06T00:06:45.798Z,99877.42
2018-01-06T00:09:11.566Z,99876.09
2018-01-06T00:11:37.319Z,99874.17
2018-01-06T00:14:03.072Z,99880.58
2018-01-06T00:16:29.687Z,99883.38
2018-01-06T00:18:55.435Z,99878.48
2018-01-06T00:21:21.222Z,99883.63
2018-01-06T00:23:46.967Z,99877.31
2018-01-06T00:26:12.721Z,99882.49
2018-01-06T00:28:38.463Z,99878.09
2018-01-06T00:31:04.240Z,99880.37
2018-01-06T00:33:29.999Z,99879.90
2018-01-06T00:35:55.780Z,99874.72
2018-01-06T00:38:21.568Z,99873.29
2018-01-06T00:40:48.108Z,99871.89
2018-01-06T00:43:13.878Z,99868.92
2018-01-06T00:45:41.534Z,99873.84
2018-01-06T00:48:07.304Z,99877.66
2018-01-06T00:50:33.050Z,99883.22
2018-01-06T00:52:58.818Z,99882.34
2018-01-06T00:55:24.575Z,99887.73
2018-01-06T00:57:50.322Z,99884.27
2018-01-06T01:00:16.079Z,99888.61
2018-01-06T01:02:41.940Z,99891.14
2018-01-06T01:05:07.750Z,99899.94
2018-01-06T01:07:33.566Z,99896.91
2018-01-06T01:09:59.315Z,99898.66
2018-01-06T01:12:25.166Z,99915.69
2018-01-06T01:14:50.917Z,99911.70
2018-01-06T01:17:16.662Z,99923.06
2018-01-06T01:19:42.418Z,99913.92
2018-01-06T01:22:08.176Z,99916.45
2018-01-06T01:24:33.943Z,99917.23
2018-01-06T01:26:59.715Z,99925.97
2018-01-06T01:29:25.482Z,99929.50
2018-01-06T01:31:51.332Z,99928.19
2018-01-06T01:34:17.121Z,99932.15
2018-01-06T01:36:42.871Z,99932.99
2018-01-06T01:39:08.646Z,99934.39
2018-01-06T01:41:34.411Z,99919.16
2018-01-06T01:44:00.182Z,99919.04
2018-01-06T01:46:25.930Z,99923.66
2018-01-06T01:48:51.704Z,99940.05
2018-01-06T01:51:17.446Z,99945.86
2018-01-06T01:53:43.202Z,99954.87
2018-01-06T01:56:08.951Z,99959.00
2018-01-06T01:58:34.705Z,99956.16
2018-01-06T02:01:00.452Z,99952.12
2018-01-06T02:03:26.238Z,99952.01
2018-01-06T02:05:51.986Z,99956.64
2018-01-06T02:08:17.739Z,99961.05
2018-01-06T02:10:43.495Z,99965.03
2018-01-06T02:13:09.248Z,99978.17
2018-01-06T02:15:35.015Z,99974.53
2018-01-06T02:18:00.777Z,99981.48
2018-01-06T02:20:26.538Z,99978.48
2018-01-06T02:22:52.294Z,99975.92
2018-01-06T02:25:18.052Z,99979.36
2018-01-06T02:27:43.807Z,99973.22
2018-01-06T02:30:09.570Z,99977.53
2018-01-06T02:32:35.312Z,99982.83
2018-01-06T02:35:01.066Z,99982.80
2018-01-06T02:37:26.811Z,99980.62
2018-01-06T02:39:52.570Z,99986.27
2018-01-06T02:42:18.323Z,99983.59
2018-01-06T02:44:44.101Z,99977.47
2018-01-06T02:47:09.854Z,99984.41
2018-01-06T02:49:35.629Z,99981.38
2018-01-06T02:52:01.383Z,99981.38
2018-01-06T02:54:27.149Z,99985.22
2018-01-06T02:56:59.967Z,99986.13
2018-01-06T02:59:25.747Z,99986.51
2018-01-06T03:01:51.512Z,99989.10
2018-01-06T03:04:17.262Z,99987.70
2018-01-06T03:06:43.017Z,99984.70
2018-01-06T03:09:08.762Z,99975.06
2018-01-06T03:11:34.515Z,99979.40
2018-01-06T03:14:00.259Z,99988.14
2018-01-06T03:16:26.012Z,99987.23
2018-01-06T03:18:51.755Z,99973.69
2018-01-06T03:21:17.507Z,99973.28
2018-01-06T03:23:43.264Z,99980.27
2018-01-06T03:26:09.027Z,99980.24
2018-01-06T03:28:34.778Z,99983.33
2018-01-06T03:31:00.536Z,99985.05
2018-01-06T03:33:26.293Z,99985.52
2018-01-06T03:35:52.058Z,99993.41
2018-01-06T03:38:17.807Z,100000.81
2018-01-06T03:40:43.566Z,99995.13
2018-01-06T03:43:09.318Z,99995.08
2018-01-06T03:45:35.079Z,99994.11
2018-01-06T03:48:00.830Z,99992.42
2018-01-06T03:50:26.587Z,99994.55
2018-01-06T03:52:52.346Z,100002.95
2018-01-06T03:55:18.107Z,100000.30
2018-01-06T03:57:43.876Z,100003.23
2018-01-06T04:00:09.644Z,99996.27
2018-01-06T04:02:35.395Z,99991.42
2018-01-06T04:05:01.948Z,99992.74
2018-01-06T04:07:27.711Z,99994.49
2018-01-06T04:09:53.467Z,99995.34
2018-01-06T04:12:19.238Z,99987.91
2018-01-06T04:14:44.993Z,99986.56
2018-01-06T04:17:10.767Z,99993.50
2018-01-06T04:19:36.525Z,99998.30
2018-01-06T04:22:02.294Z,99995.19
2018-01-06T04:24:28.059Z,100002.21
2018-01-06T04:26:53.827Z,100004.34
2018-01-06T04:29:19.595Z,100011.77
2018-01-06T04:31:45.367Z,100009.05
2018-01-06T04:34:11.126Z,100012.95
2018-01-06T04:36:36.892Z,100016.42
2018-01-06T04:39:02.671Z,100012.93
2018-01-06T04:41:28.431Z,100023.36
2018-01-06T04:43:54.200Z,100029.08
2018-01-06T04:46:19.972Z,100031.20
2018-01-06T04:48:45.742Z,100042.98
2018-01-06T04:51:11.506Z,100052.08
2018-01-06T04:53:37.286Z,100049.57
2018-01-06T04:56:03.046Z,100046.92
2018-01-06T04:58:28.818Z,100048.27
2018-01-06T05:00:54.582Z,100055.70
2018-01-06T05:03:20.355Z,100057.91
2018-01-06T05:05:46.114Z,100063.91
2018-01-06T05:08:11.904Z,100075.34
2018-01-06T05:10:37.658Z,100072.66
2018-01-06T05:13:03.415Z,100076.66
2018-01-06T05:15:29.183Z,100077.56
2018-01-06T05:17:54.967Z,100081.06
2018-01-06T05:20:20.724Z,100075.92
2018-01-06T05:22:46.468Z,100078.11
2018-01-06T05:25:12.226Z,100092.48
2018-01-06T05:27:37.983Z,100093.77
2018-01-06T05:30:03.769Z,100090.27
2018-01-06T05:32:29.521Z,100093.01
2018-01-06T05:34:55.295Z,100097.41
2018-01-06T05:37:21.057Z,100098.66
2018-01-06T05:39:46.823Z,100103.56
2018-01-06T05:42:12.587Z,100107.44
2018-01-06T05:44:38.360Z,100104.34
2018-01-06T05:47:04.119Z,100112.69
2018-01-06T05:49:29.872Z,100123.18
2018-01-06T05:51:55.615Z,100127.52
2018-01-06T05:54:21.372Z,100132.80
2018-01-06T05:56:47.128Z,100131.46
2018-01-06T05:59:12.886Z,100120.09
2018-01-06T06:01:38.632Z,100128.95
2018-01-06T06:04:04.383Z,100125.91
2018-01-06T06:06:30.167Z,100131.62
2018-01-06T06:08:55.920Z,100135.20
2018-01-06T06:11:21.671Z,100134.81
2018-01-06T06:13:47.408Z,100136.13
2018-01-06T06:16:13.184Z,100132.73
2018-01-06T06:18:38.942Z,100136.80
2018-01-06T06:21:04.695Z,100142.09
2018-01-06T06:23:30.451Z,100143.30
2018-01-06T06:25:56.210Z,100140.70
2018-01-06T06:28:21.958Z,100151.58
2018-01-06T06:30:47.708Z,100148.05
2018-01-06T06:33:13.450Z,100152.87
2018-01-06T06:35:39.212Z,100156.34
2018-01-06T06:38:04.974Z,100164.08
2018-01-06T06:40:30.748Z,100163.66
2018-01-06T06:42:56.517Z,100165.03
2018-01-06T06:45:22.281Z,100162.56
2018-01-06T06:47:48.039Z,100166.00
2018-01-06T06:50:13.792Z,100168.50
2018-01-06T06:52:39.559Z,100172.87
2018-01-06T06:55:05.322Z,100182.02
2018-01-06T06:57:31.101Z,100172.38
2018-01-06T06:59:56.873Z,100170.20
2018-01-06T07:02:22.630Z,100176.81
2018-01-06T07:04:48.387Z,100178.45
2018-01-06T07:07:14.159Z,100185.09
2018-01-06T07:09:39.921Z,100183.78
2018-01-06T07:12:05.716Z,100189.42
2018-01-06T07:14:31.467Z,100188.12
2018-01-06T07:16:57.215Z,100190.36
2018-01-06T07:19:22.970Z,100193.86
2018-01-06T07:21:48.723Z,100193.03
2018-01-06T07:24:14.485Z,100197.89
2018-01-06T07:26:40.231Z,100197.42
2018-01-06T07:29:05.987Z,100207.04
2018-01-06T07:31:31.730Z,100213.59
2018-01-06T07:33:57.491Z,100225.39
2018-01-06T07:36:23.251Z,100221.00
2018-01-06T07:38:49.005Z,100228.41
2018-01-06T07:41:14.765Z,100233.73
2018-01-06T07:43:40.544Z,100236.77
2018-01-06T07:46:06.278Z,100235.88
2018-01-06T07:48:32.047Z,100235.02
2018-01-06T07:50:57.816Z,100238.47
2018-01-06T07:53:23.595Z,100239.75
2018-01-06T07:55:49.344Z,100248.04
2018-01-06T07:58:15.078Z,100253.26
2018-01-06T08:00:40.831Z,100261.59
2018-01-06T08:03:06.583Z,100269.41
2018-01-06T08:05:32.346Z,100284.69
2018-01-06T08:07:58.098Z,100276.84
2018-01-06T08:10:23.863Z,100282.94
2018-01-06T08:12:49.623Z,100292.10
2018-01-06T08:15:15.443Z,100297.33
2018-01-06T08:17:41.146Z,100295.53
2018-01-06T08:20:06.912Z,100301.68
2018-01-06T08:22:32.650Z,100315.27
2018-01-06T08:24:58.410Z,100318.31
2018-01-06T08:27:24.180Z,100320.50
2018-01-06T08:29:49.977Z,100327.89
2018-01-06T08:32:15.731Z,100330.99
2018-01-06T08:34:41.490Z,100328.77
2018-01-06T08:37:07.263Z,100341.00
2018-01-06T08:39:33.023Z,100348.01
2018-01-06T08:41:58.790Z,100351.08
2018-01-06T08:44:24.553Z,100355.03
2018-01-06T08:46:50.316Z,100355.89
2018-01-06T08:49:16.071Z,100361.59
2018-01-06T08:51:41.830Z,100376.88
2018-01-06T08:54:07.596Z,100379.48
2018-01-06T08:56:33.368Z,100377.77
2018-01-06T08:58:59.122Z,100385.63
2018-01-06T09:01:24.858Z,100390.88
2018-01-06T09:03:50.607Z,100393.50
2018-01-06T09:06:16.368Z,100394.77
2018-01-06T09:08:42.136Z,100396.46
2018-01-06T09:11:07.891Z,100403.89
2018-01-06T09:13:33.665Z,100405.22
2018-01-06T09:15:59.426Z,100411.34
2018-01-06T09:18:26.023Z,100412.25
2018-01-06T09:20:53.082Z,100411.30
2018-01-06T09:23:18.884Z,100417.45
2018-01-06T09:25:44.634Z,100425.27
2018-01-06T09:28:10.395Z,100434.45
2018-01-06T09:30:36.147Z,100434.86
2018-01-06T09:33:02.241Z,100435.31
2018-01-06T09:35:28.316Z,100448.44
2018-01-06T09:37:54.442Z,100450.17
2018-01-06T09:40:20.597Z,100462.79
2018-01-06T09:42:46.869Z,100464.08
2018-01-06T09:45:12.972Z,100461.08
2018-01-06T09:47:39.104Z,100470.67
2018-01-06T09:50:05.120Z,100474.14
2018-01-06T09:52:31.215Z,100470.23
2018-01-06T09:54:57.441Z,100481.64
2018-01-06T09:57:23.732Z,100484.20
2018-01-06T09:59:50.226Z,100495.56
2018-01-06T10:02:16.363Z,100492.50
2018-01-06T10:04:42.495Z,100501.66
2018-01-06T10:07:08.275Z,100506.03
2018-01-06T10:09:34.050Z,100514.85
2018-01-06T10:11:59.898Z,100526.68
2018-01-06T10:14:26.112Z,100524.80
2018-01-06T10:16:53.075Z,100540.61
2018-01-06T10:19:19.299Z,100551.09
2018-01-06T10:21:45.404Z,100552.42
2018-01-06T10:24:11.507Z,100562.08
2018-01-06T10:26:37.575Z,100559.91
2018-01-06T10:29:03.804Z,100566.47
2018-01-06T10:31:30.894Z,100570.00
2018-01-06T10:33:57.955Z,100571.75
2018-01-06T10:36:25.120Z,100576.96
2018-01-06T10:38:51.487Z,100583.54
2018-01-06T10:41:18.820Z,100590.02
2018-01-06T10:43:44.982Z,100602.28
2018-01-06T10:46:11.165Z,100609.67
2018-01-06T10:48:37.357Z,100609.25
2018-01-06T10:51:03.601Z,100621.00
2018-01-06T10:53:29.804Z,100624.47
2018-01-06T10:55:55.960Z,100623.63
2018-01-06T10:58:22.102Z,100631.47
2018-01-06T11:00:54.022Z,100631.03
2018-01-06T11:03:19.762Z,100636.70
2018-01-06T11:05:45.507Z,100644.11
2018-01-06T11:08:11.246Z,100641.95
2018-01-06T11:10:37.020Z,100647.63
2018-01-06T11:13:02.785Z,100654.17
2018-01-06T11:15:28.562Z,100653.75
2018-01-06T11:17:54.321Z,100656.36
2018-01-06T11:20:20.091Z,100662.46
2018-01-06T11:22:45.855Z,100668.13
2018-01-06T11:25:11.622Z,100667.27
2018-01-06T11:27:37.371Z,100668.98
2018-01-06T11:30:03.123Z,100675.57
2018-01-06T11:32:28.900Z,100672.50
2018-01-06T11:34:54.651Z,100677.32
2018-01-06T11:37:20.419Z,100683.41
2018-01-06T11:39:46.171Z,100682.97
2018-01-06T11:42:11.933Z,100692.59
2018-01-06T11:44:37.706Z,100702.20
2018-01-06T11:47:03.465Z,100702.63
2018-01-06T11:49:29.215Z,100694.77
2018-01-06T11:51:54.982Z,100695.19
2018-01-06T11:54:20.740Z,100695.63
2018-01-06T11:56:46.507Z,100710.45
2018-01-06T11:59:12.262Z,100707.42
2018-01-06T12:01:38.042Z,100720.94
2018-01-06T12:04:03.819Z,100734.44
2018-01-06T12:06:29.584Z,100732.27
2018-01-06T12:08:55.348Z,100735.77
2018-01-06T12:11:21.108Z,100741.87
2018-01-06T12:13:46.863Z,100753.20
2018-01-06T12:16:12.616Z,100758.01
2018-01-06T12:18:38.383Z,100758.42
2018-01-06T12:21:04.160Z,100764.09
2018-01-06T12:23:29.915Z,100771.08
2018-01-06T12:25:55.671Z,100774.58
2018-01-06T12:28:21.427Z,100771.51
2018-01-06T12:30:47.191Z,100771.51
2018-01-06T12:33:13.012Z,100785.89
2018-01-06T12:35:38.763Z,100786.77
2018-01-06T12:38:04.959Z,100785.02
2018-01-06T12:40:30.735Z,100795.06
2018-01-06T12:42:56.500Z,100800.72
2018-01-06T12:45:22.270Z,100809.02
2018-01-06T12:47:48.084Z,100804.22
2018-01-06T12:50:13.868Z,100802.92
2018-01-06T12:52:39.679Z,100816.86
2018-01-06T12:55:05.405Z,100819.05
2018-01-06T12:57:31.182Z,100826.46
2018-01-06T12:59:56.954Z,100828.21
2018-01-06T13:02:22.723Z,100833.44
2018-01-06T13:04:48.519Z,100840.42
2018-01-06T13:07:14.267Z,100849.56
2018-01-06T13:09:40.045Z,100849.57
2018-01-06T13:12:05.798Z,100868.35
2018-01-06T13:14:31.562Z,100878.38
2018-01-06T13:16:58.048Z,100883.20
2018-01-06T13:19:23.819Z,100880.56
2018-01-06T13:21:49.575Z,100883.19
2018-01-06T13:24:15.339Z,100887.13
2018-01-06T13:26:41.105Z,100901.53
2018-01-06T13:29:06.946Z,100905.44
2018-01-06T13:31:32.675Z,100914.18
2018-01-06T13:33:58.467Z,100918.53
2018-01-06T13:36:24.210Z,100925.95
2018-01-06T13:38:49.954Z,100932.49
2018-01-06T13:41:15.785Z,100930.73
2018-01-06T13:43:41.555Z,100941.66
2018-01-06T13:46:07.339Z,100945.14
2018-01-06T13:48:33.072Z,100949.50
2018-01-06T13:50:58.848Z,100959.08
2018-01-06T13:53:24.671Z,100956.47
2018-01-06T13:55:50.436Z,100958.67
2018-01-06T13:58:16.237Z,100969.13
2018-01-06T14:00:42.070Z,100974.80
2018-01-06T14:03:07.824Z,100987.00
2018-01-06T14:05:33.600Z,100998.34
2018-01-06T14:07:59.384Z,101009.25
2018-01-06T14:10:25.202Z,101014.92
2018-01-06T14:12:51.012Z,101014.47
2018-01-06T14:15:16.777Z,101017.51
2018-01-06T14:17:42.530Z,101021.45
2018-01-06T14:20:08.309Z,101028.85
2018-01-06T14:22:34.150Z,101028.39
2018-01-06T14:24:59.911Z,101039.31
2018-01-06T14:27:25.679Z,101049.32
2018-01-06T14:29:51.423Z,101048.91
2018-01-06T14:32:17.177Z,101064.99
2018-01-06T14:34:42.939Z,101071.55
2018-01-06T14:37:08.761Z,101071.13
2018-01-06T14:39:34.573Z,101080.27
2018-01-06T14:42:00.306Z,101089.85
2018-01-06T14:44:26.064Z,101088.09
2018-01-06T14:46:51.837Z,101098.11
2018-01-06T14:49:17.619Z,101095.96
2018-01-06T14:51:43.392Z,101099.86
2018-01-06T14:54:09.163Z,101113.38
2018-01-06T14:56:34.938Z,101113.37
2018-01-06T14:59:00.771Z,101123.80
2018-01-06T15:01:26.568Z,101129.03
2018-01-06T15:03:52.381Z,101132.52
2018-01-06T15:06:18.136Z,101129.45
2018-01-06T15:08:43.957Z,101143.84
2018-01-06T15:11:09.713Z,101153.89
2018-01-06T15:13:35.537Z,101160.43
2018-01-06T15:16:01.352Z,101155.62
2018-01-06T15:18:27.158Z,101166.09
2018-01-06T15:20:52.941Z,101168.23
2018-01-06T15:23:18.716Z,101176.08
2018-01-06T15:25:44.470Z,101178.25
2018-01-06T15:28:10.264Z,101186.07
2018-01-06T15:30:36.053Z,101191.72
2018-01-06T15:33:01.806Z,101197.38
2018-01-06T15:35:27.590Z,101202.62
2018-01-06T15:37:53.465Z,101209.97
2018-01-06T15:40:19.220Z,101216.05
2018-01-06T15:42:44.990Z,101220.77
2018-01-06T15:45:10.798Z,101225.12
2018-01-06T15:47:36.567Z,101239.06
2018-01-06T15:50:02.538Z,101239.50
2018-01-06T15:52:28.303Z,101241.23
2018-01-06T15:54:54.065Z,101242.98
2018-01-06T15:57:19.814Z,101249.54
2018-01-06T15:59:45.572Z,101242.10
2018-01-06T16:02:11.341Z,101253.42
2018-01-06T16:04:37.119Z,101254.75
2018-01-06T16:07:02.947Z,101256.50
2018-01-06T16:09:28.730Z,101258.25
2018-01-06T16:11:54.503Z,101264.38
2018-01-06T16:14:20.262Z,101266.59
2018-01-06T16:16:46.074Z,101272.75
2018-01-06T16:19:11.904Z,101278.89
2018-01-06T16:21:37.659Z,101287.98
2018-01-06T16:24:03.456Z,101286.28
2018-01-06T16:26:29.211Z,101286.69
2018-01-06T16:28:54.959Z,101285.36
2018-01-06T16:31:20.770Z,101291.00
2018-01-06T16:33:46.510Z,101298.42
2018-01-06T16:36:12.270Z,101296.68
2018-01-06T16:38:38.089Z,101302.34
2018-01-06T16:41:03.957Z,101296.70
2018-01-06T16:43:29.772Z,101308.47
2018-01-06T16:45:55.583Z,101311.10
2018-01-06T16:48:21.522Z,101319.80
2018-01-06T16:50:47.313Z,101313.43
2018-01-06T16:53:13.050Z,101319.16
2018-01-06T16:55:38.801Z,101327.41
2018-01-06T16:58:04.550Z,101331.81
2018-01-06T17:00:30.310Z,101338.78
2018-01-06T17:02:56.067Z,101354.41
2018-01-06T17:05:21.822Z,101349.53
2018-01-06T17:07:47.602Z,101356.03
2018-01-06T17:10:13.363Z,101359.91
2018-01-06T17:12:39.191Z,101363.45
2018-01-06T17:15:04.903Z,101373.45
2018-01-06T17:17:30.946Z,101373.03
2018-01-06T17:19:56.708Z,101375.61
2018-01-06T17:22:22.471Z,101387.84
2018-01-06T17:24:48.211Z,101383.03
2018-01-06T17:27:14.002Z,101397.42
2018-01-06T17:29:39.718Z,101402.20
2018-01-06T17:32:05.466Z,101408.29
2018-01-06T17:34:31.219Z,101415.77
2018-01-06T17:36:56.979Z,101423.62
2018-01-06T17:39:22.735Z,101418.38
2018-01-06T17:41:48.493Z,101425.78
2018-01-06T17:44:14.242Z,101430.16
2018-01-06T17:46:39.989Z,101431.44
2018-01-06T17:49:06.135Z,101445.40
2018-01-06T17:51:31.518Z,101440.72
2018-01-06T17:53:57.258Z,101444.17
2018-01-06T17:56:23.012Z,101442.86
2018-01-06T17:58:48.851Z,101454.10
2018-01-06T18:01:14.591Z,101455.02
2018-01-06T18:03:40.340Z,101461.13
2018-01-06T18:06:06.088Z,101466.31
2018-01-06T18:08:31.846Z,101469.36
2018-01-06T18:10:57.595Z,101479.36
2018-01-06T18:13:23.350Z,101481.09
2018-01-06T18:15:49.112Z,101484.95
2018-01-06T18:18:14.865Z,101501.53
2018-01-06T18:20:40.610Z,101501.08
2018-01-06T18:23:06.351Z,101512.86
2018-01-06T18:25:32.091Z,101512.03
2018-01-06T18:27:57.838Z,101519.88
2018-01-06T18:30:23.575Z,101523.73
2018-01-06T18:32:49.311Z,101535.98
2018-01-06T18:35:15.064Z,101532.88
2018-01-06T18:37:40.810Z,101535.94
2018-01-06T18:40:06.563Z,101536.80
2018-01-06T18:42:32.329Z,101548.97
2018-01-06T18:44:58.095Z,101553.62
2018-01-06T18:47:23.847Z,101570.48
2018-01-06T18:49:49.604Z,101568.64
2018-01-06T18:52:15.346Z,101586.40
2018-01-06T18:54:41.114Z,101589.05
2018-01-06T18:57:13.783Z,101598.14
2018-01-06T18:59:39.582Z,101599.95
2018-01-06T19:02:05.287Z,101608.20
2018-01-06T19:04:31.044Z,101616.47
2018-01-06T19:06:56.782Z,101616.46
2018-01-06T19:09:22.534Z,101624.17
2018-01-06T19:11:48.289Z,101639.47
2018-01-06T19:14:14.026Z,101643.73
2018-01-06T19:16:39.778Z,101653.14
2018-01-06T19:19:05.527Z,101654.80
2018-01-06T19:21:31.286Z,101661.59
2018-01-06T19:23:57.049Z,101666.34
2018-01-06T19:26:22.803Z,101669.70
2018-01-06T19:28:48.538Z,101680.92
2018-01-06T19:31:14.294Z,101683.00
2018-01-06T19:33:40.050Z,101689.83
2018-01-06T19:36:05.826Z,101691.02
2018-01-06T19:38:31.576Z,101692.67
2018-01-06T19:40:57.343Z,101702.95
2018-01-06T19:43:23.087Z,101711.45
2018-01-06T19:45:48.838Z,101715.81
2018-01-06T19:48:14.579Z,101718.88
2018-01-06T19:50:40.347Z,101721.04
2018-01-06T19:53:06.082Z,101730.20
2018-01-06T19:55:31.842Z,101729.89
2018-01-06T19:57:57.596Z,101744.06
2018-01-06T20:00:23.333Z,101749.13
2018-01-06T20:02:49.088Z,101751.80
2018-01-06T20:05:14.843Z,101754.05
2018-01-06T20:07:40.616Z,101765.90
2018-01-06T20:10:06.380Z,101772.94
2018-01-06T20:12:32.138Z,101784.31
2018-01-06T20:14:57.891Z,101790.36
2018-01-06T20:17:23.656Z,101792.63
2018-01-06T20:19:49.416Z,101797.88
2018-01-06T20:22:15.174Z,101805.72
2018-01-06T20:24:40.932Z,101805.66
2018-01-06T20:27:06.690Z,101814.26
2018-01-06T20:29:32.453Z,101817.16
2018-01-06T20:31:58.221Z,101827.02
2018-01-06T20:34:23.958Z,101819.50
2018-01-06T20:36:49.706Z,101821.05
2018-01-06T20:39:15.450Z,101828.48
2018-01-06T20:41:41.210Z,101837.09
2018-01-06T20:44:06.967Z,101839.64
2018-01-06T20:46:32.720Z,101843.52
2018-01-06T20:48:58.482Z,101849.98
2018-01-06T20:51:24.230Z,101862.48
2018-01-06T20:53:49.987Z,101860.69
2018-01-06T20:56:22.823Z,101871.47
2018-01-06T20:58:48.599Z,101885.75
2018-01-06T21:01:14.332Z,101867.93
2018-01-06T21:03:40.088Z,101894.48
2018-01-06T21:06:05.834Z,101910.06
2018-01-06T21:08:31.586Z,101906.97
2018-01-06T21:10:57.334Z,101903.88
2018-01-06T21:13:23.078Z,101905.06
2018-01-06T21:15:48.847Z,101917.14
2018-01-06T21:18:14.612Z,101920.41
2018-01-06T21:20:40.364Z,101921.56
2018-01-06T21:23:06.131Z,101933.14
2018-01-06T21:25:31.866Z,101932.66
2018-01-06T21:27:57.643Z,101941.42
2018-01-06T21:30:23.381Z,101948.63
2018-01-06T21:32:49.116Z,101951.93
2018-01-06T21:35:14.867Z,101955.31
2018-01-06T21:37:40.609Z,101961.42
2018-01-06T21:40:06.363Z,101964.77
2018-01-06T21:42:32.128Z,101972.41
2018-01-06T21:44:57.879Z,101982.00
2018-01-06T21:47:23.634Z,101988.47
2018-01-06T21:49:49.407Z,101991.56
2018-01-06T21:52:15.151Z,101994.58
2018-01-06T21:54:40.911Z,102012.06
2018-01-06T21:57:06.658Z,102018.95
2018-01-06T21:59:32.432Z,102016.25
2018-01-06T22:01:58.187Z,102022.37
2018-01-06T22:04:23.958Z,102026.33
2018-01-06T22:06:49.709Z,102033.61
2018-01-06T22:09:15.459Z,102037.11
2018-01-06T22:11:41.222Z,102043.59
2018-01-06T22:14:06.975Z,102052.22
2018-01-06T22:16:32.747Z,102053.30
2018-01-06T22:18:58.497Z,102054.24
2018-01-06T22:21:24.250Z,102059.91
2018-01-06T22:23:50.045Z,102058.92
2018-01-06T22:26:15.809Z,102055.01
2018-01-06T22:28:41.555Z,102061.48
2018-01-06T22:31:07.306Z,102066.29
2018-01-06T22:33:33.057Z,102069.39
2018-01-06T22:35:58.832Z,102073.66
2018-01-06T22:38:24.592Z,102070.48
2018-01-06T22:40:50.355Z,102068.98
2018-01-06T22:43:16.102Z,102075.06
2018-01-06T22:45:41.866Z,102080.67
2018-01-06T22:48:07.658Z,102079.54
2018-01-06T22:50:33.429Z,102093.12
2018-01-06T22:52:59.216Z,102096.36
2018-01-06T22:55:24.970Z,102098.02
2018-01-06T22:57:50.713Z,102105.75
2018-01-06T23:00:16.474Z,102108.40
2018-01-06T23:02:42.239Z,102110.87
2018-01-06T23:05:07.978Z,102117.52
2018-01-06T23:07:33.744Z,102124.41
2018-01-06T23:09:59.511Z,102119.54
2018-01-06T23:12:25.256Z,102127.77
2018-01-06T23:14:51.010Z,102133.78
2018-01-06T23:17:16.779Z,102139.00
2018-01-06T23:19:42.535Z,102143.30
2018-01-06T23:22:08.288Z,102146.58
2018-01-06T23:24:34.046Z,102152.09
2018-01-06T23:26:59.792Z,102154.99
2018-01-06T23:29:25.538Z,102157.16
2018-01-06T23:31:51.291Z,102166.83
2018-01-06T23:34:17.050Z,102168.23
2018-01-06T23:36:42.810Z,102171.70
2018-01-06T23:39:08.566Z,102175.66
2018-01-06T23:41:34.330Z,102186.92
2018-01-06T23:44:00.091Z,102183.27
2018-01-06T23:46:25.843Z,102183.17
2018-01-06T23:48:51.615Z,102194.48
2018-01-06T23:51:17.366Z,102194.09
2018-01-06T23:53:43.123Z,102200.59
2018-01-06T23:56:08.868Z,102209.35
2018-01-06T23:58:34.638Z,102217.32
